Time;durP1;ratioP1;P1;durP2;ratioP2;P2;SDS_P1;SDS_P2;PMS_P1;PMS_P2;Temp;Humidity;BMP_temperature;BMP_pressure;BME280_temperature;BME280_humidity;BME280_pressure;Samples;Min_cycle;Max_cycle;Signal;HPM_P1;HPM_P2
2023/10/25 00:02:01;;;;;;;17.08;7.65;;;;;;;15.55;55.88;94519.97;4975663;28;20173;-74
2023/10/25 00:04:27;;;;;;;13.55;6.57;;;;;;;15.52;55.66;94505.28;4973939;28;20307;-74
2023/10/25 00:06:53;;;;;;;20.15;7.28;;;;;;;15.53;55.77;94506.91;4969906;28;20220;-74
2023/10/25 00:09:18;;;;;;;16.00;6.95;;;;;;;15.54;55.65;94503.25;4971802;28;20239;-74
2023/10/25 00:11:44;;;;;;;13.05;7.03;;;;;;;15.47;55.83;94483.03;4972938;28;20227;-74
2023/10/25 00:14:09;;;;;;;15.75;6.22;;;;;;;15.56;55.21;94474.72;4979615;28;20193;-74
2023/10/25 00:16:35;;;;;;;15.43;6.97;;;;;;;15.49;55.58;94470.41;4979231;28;20227;-74
2023/10/25 00:19:00;;;;;;;13.40;7.07;;;;;;;15.21;55.98;94469.44;4971588;28;20226;-74
2023/10/25 00:21:26;;;;;;;15.15;6.85;;;;;;;15.27;55.97;94459.06;4969321;28;20382;-74
2023/10/25 00:23:51;;;;;;;18.63;6.65;;;;;;;15.33;55.87;94464.41;4973416;28;20275;-74
2023/10/25 00:26:16;;;;;;;12.40;6.95;;;;;;;15.35;55.88;94480.91;4973525;28;20243;-74
2023/10/25 00:28:42;;;;;;;13.15;6.47;;;;;;;15.24;56.03;94478.81;4971026;28;20251;-73
2023/10/25 00:31:07;;;;;;;15.25;6.25;;;;;;;15.11;55.95;94487.47;4971620;28;20228;-74
2023/10/25 00:33:33;;;;;;;15.85;6.00;;;;;;;15.15;55.58;94469.38;4969336;28;20223;-74
2023/10/25 00:35:58;;;;;;;9.52;5.43;;;;;;;15.32;55.66;94467.25;4972604;28;20220;-72
2023/10/25 00:38:24;;;;;;;12.65;5.88;;;;;;;15.13;56.06;94456.34;4973141;28;20238;-74
2023/10/25 00:40:49;;;;;;;14.23;6.40;;;;;;;15.30;55.79;94451.53;4974373;28;20226;-73
2023/10/25 00:43:16;;;;;;;16.48;5.93;;;;;;;15.46;55.46;94452.25;4972320;28;20219;-71
2023/10/25 00:45:54;;;;;;;12.45;6.80;;;;;;;15.16;56.03;94447.19;4967171;28;20220;-72
2023/10/25 00:48:19;;;;;;;15.77;6.93;;;;;;;14.96;56.88;94445.19;4988451;28;20216;-72
2023/10/25 00:50:45;;;;;;;12.88;6.00;;;;;;;15.17;56.31;94456.75;4973053;28;20318;-72
2023/10/25 00:53:10;;;;;;;12.73;5.95;;;;;;;15.07;56.51;94456.28;4974262;28;20192;-72
2023/10/25 00:55:36;;;;;;;13.25;6.45;;;;;;;15.05;56.86;94460.94;4969380;28;20224;-72
2023/10/25 00:58:02;;;;;;;13.63;6.03;;;;;;;15.02;56.90;94480.66;4974712;28;20220;-72
2023/10/25 01:00:27;;;;;;;15.90;6.68;;;;;;;15.13;56.75;94477.53;4969226;28;20220;-72
2023/10/25 01:02:53;;;;;;;15.05;6.30;;;;;;;15.10;56.83;94474.41;4972536;28;20212;-73
2023/10/25 01:05:18;;;;;;;12.68;5.85;;;;;;;14.90;57.41;94453.91;4970964;28;20275;-73
2023/10/25 01:07:44;;;;;;;11.57;5.80;;;;;;;15.00;57.71;94450.94;4975055;28;20300;-73
2023/10/25 01:10:09;;;;;;;13.82;5.80;;;;;;;14.90;57.17;94439.88;4972010;28;20232;-73
2023/10/25 01:12:35;;;;;;;11.75;5.85;;;;;;;15.06;57.34;94422.88;4972295;28;20231;-73
2023/10/25 01:15:00;;;;;;;15.50;6.88;;;;;;;15.18;56.83;94422.16;4973423;28;20303;-72
2023/10/25 01:17:26;;;;;;;13.35;6.25;;;;;;;15.17;57.17;94435.56;4973754;28;20192;-74
2023/10/25 01:19:51;;;;;;;12.57;7.00;;;;;;;15.08;57.39;94440.19;4973027;28;20248;-72
2023/10/25 01:22:16;;;;;;;13.23;6.47;;;;;;;15.18;56.99;94437.19;4971684;28;20212;-73
2023/10/25 01:24:43;;;;;;;11.02;6.35;;;;;;;15.20;57.22;94429.88;4972032;28;20229;-72
2023/10/25 01:27:08;;;;;;;11.68;5.60;;;;;;;15.18;57.26;94427.44;4963724;28;20224;-72
2023/10/25 01:29:33;;;;;;;14.30;6.18;;;;;;;15.15;56.94;94437.59;4974329;28;20235;-73
2023/10/25 01:31:59;;;;;;;15.25;6.15;;;;;;;15.18;56.50;94429.25;4969911;28;20301;-73
2023/10/25 01:34:24;;;;;;;13.30;5.43;;;;;;;15.26;56.11;94437.03;4969846;28;20256;-74
2023/10/25 01:36:50;;;;;;;11.48;6.05;;;;;;;15.26;56.31;94430.94;4971318;28;20224;-73
2023/10/25 01:39:15;;;;;;;12.82;5.88;;;;;;;15.32;56.20;94427.53;4969688;28;20288;-73
2023/10/25 01:41:41;;;;;;;10.27;5.18;;;;;;;15.15;56.33;94427.81;4971989;28;20231;-74
2023/10/25 01:44:06;;;;;;;13.00;5.93;;;;;;;15.27;56.00;94430.75;4974282;28;20176;-74
2023/10/25 01:46:31;;;;;;;14.27;5.13;;;;;;;15.20;56.15;94438.63;4968968;28;20247;-74
2023/10/25 01:48:59;;;;;;;13.65;5.15;;;;;;;15.11;56.60;94444.28;4965914;28;20232;-74
2023/10/25 01:51:24;;;;;;;9.85;5.50;;;;;;;15.07;56.62;94457.09;4969062;28;20238;-76
2023/10/25 01:53:50;;;;;;;13.45;6.40;;;;;;;15.00;57.27;94456.25;4969493;28;20306;-75
2023/10/25 01:56:15;;;;;;;7.65;5.43;;;;;;;15.02;57.16;94459.50;4970358;28;20192;-75
2023/10/25 01:58:40;;;;;;;14.05;6.38;;;;;;;15.04;57.13;94454.81;4972049;28;20228;-75
2023/10/25 02:01:06;;;;;;;12.98;6.35;;;;;;;15.03;57.14;94449.75;4971665;28;20291;-75
2023/10/25 02:03:31;;;;;;;13.63;5.80;;;;;;;14.94;57.25;94455.19;4968913;28;20275;-76
2023/10/25 02:05:57;;;;;;;14.15;5.50;;;;;;;14.76;57.86;94455.66;4973857;28;20239;-76
2023/10/25 02:08:22;;;;;;;14.35;5.90;;;;;;;14.74;58.00;94476.19;4973150;28;20190;-76
2023/10/25 02:10:48;;;;;;;12.48;5.85;;;;;;;14.70;58.12;94466.16;4974616;28;20203;-76
2023/10/25 02:13:13;;;;;;;15.63;6.07;;;;;;;14.74;58.24;94462.13;4974833;28;20216;-76
2023/10/25 02:15:38;;;;;;;12.00;5.63;;;;;;;14.94;57.58;94447.25;4975102;28;20302;-76
2023/10/25 02:18:04;;;;;;;11.13;5.97;;;;;;;14.91;57.70;94444.13;4969082;28;20231;-76
2023/10/25 02:20:29;;;;;;;14.43;5.63;;;;;;;14.89;57.68;94444.34;4973485;28;20190;-75
2023/10/25 02:22:55;;;;;;;13.95;5.88;;;;;;;15.03;57.22;94444.44;4972698;28;20279;-76
2023/10/25 02:25:20;;;;;;;13.50;5.63;;;;;;;15.03;57.40;94457.69;4973858;28;20220;-75
2023/10/25 02:27:46;;;;;;;13.07;5.53;;;;;;;15.02;57.33;94437.50;4965842;28;20228;-74
2023/10/25 02:30:11;;;;;;;13.40;5.25;;;;;;;14.94;57.09;94447.25;4963929;28;20224;-73
2023/10/25 02:32:37;;;;;;;12.18;5.72;;;;;;;14.88;57.18;94434.75;4970741;28;20438;-74
2023/10/25 02:35:03;;;;;;;12.85;5.88;;;;;;;14.92;56.92;94421.97;4972320;28;20188;-73
2023/10/25 02:37:28;;;;;;;15.20;5.43;;;;;;;14.91;57.09;94420.31;4972950;28;20240;-74
2023/10/25 02:39:53;;;;;;;11.88;4.85;;;;;;;14.90;56.69;94389.56;4978751;28;20216;-74
2023/10/25 02:42:19;;;;;;;13.02;5.38;;;;;;;14.91;56.45;94384.06;4973090;28;20224;-75
2023/10/25 02:44:44;;;;;;;16.65;5.45;;;;;;;14.87;56.32;94392.63;4973309;28;20319;-74
2023/10/25 02:47:10;;;;;;;12.55;5.28;;;;;;;14.79;56.76;94359.16;4973670;28;20191;-74
2023/10/25 02:49:35;;;;;;;10.02;5.03;;;;;;;14.91;56.36;94352.31;4971674;28;20235;-74
2023/10/25 02:52:00;;;;;;;13.77;5.40;;;;;;;14.97;56.29;94342.78;4975223;28;20227;-73
2023/10/25 02:54:26;;;;;;;12.18;5.40;;;;;;;15.03;56.01;94346.50;4974837;28;20377;-74
2023/10/25 02:56:51;;;;;;;12.27;5.50;;;;;;;15.08;56.04;94346.72;4973578;28;20319;-74
2023/10/25 02:59:17;;;;;;;9.95;4.47;;;;;;;15.21;55.20;94330.91;4974342;28;20287;-74
2023/10/25 03:01:42;;;;;;;10.63;4.88;;;;;;;15.23;55.57;94328.84;4974720;28;20249;-74
2023/10/25 03:04:08;;;;;;;15.45;5.03;;;;;;;15.18;55.29;94352.44;4972204;28;20311;-74
2023/10/25 03:06:33;;;;;;;10.30;5.00;;;;;;;15.22;55.16;94351.06;4973161;28;20227;-74
2023/10/25 03:08:59;;;;;;;12.15;5.03;;;;;;;15.39;55.02;94323.19;4973367;28;20224;-74
2023/10/25 03:11:24;;;;;;;8.68;4.53;;;;;;;15.37;55.10;94306.72;4974659;28;20188;-74
2023/10/25 03:13:49;;;;;;;13.57;5.65;;;;;;;15.29;55.13;94328.06;4975484;28;20195;-74
2023/10/25 03:16:15;;;;;;;14.95;5.00;;;;;;;15.42;54.93;94317.53;4973631;28;20228;-74
2023/10/25 03:18:40;;;;;;;14.25;5.07;;;;;;;15.37;55.04;94298.75;4971152;28;20368;-74
2023/10/25 03:21:06;;;;;;;11.23;5.05;;;;;;;15.35;55.49;94295.50;4977437;28;20220;-74
2023/10/25 03:23:32;;;;;;;13.07;4.97;;;;;;;15.43;55.06;94307.75;4971583;28;20271;-74
2023/10/25 03:26:08;;;;;;;11.55;5.00;;;;;;;15.42;55.36;94322.84;4976360;28;20184;-73
2023/10/25 03:28:34;;;;;;;11.15;4.85;;;;;;;15.23;55.73;94334.13;4969975;28;20227;-73
2023/10/25 03:31:09;;;;;;;11.60;5.05;;;;;;;15.28;55.75;94323.78;4977123;28;20370;-74
2023/10/25 03:33:36;;;;;;;12.38;4.78;;;;;;;15.48;55.30;94309.81;4972624;28;20226;-73
2023/10/25 03:36:01;;;;;;;13.13;5.05;;;;;;;15.43;55.35;94299.81;4971765;28;20224;-75
2023/10/25 03:38:27;;;;;;;9.90;4.50;;;;;;;15.48;54.82;94310.63;4976175;28;20195;-73
2023/10/25 03:41:00;;;;;;;16.67;5.03;;;;;;;15.47;54.95;94316.91;4976484;28;20216;-73
2023/10/25 03:43:25;;;;;;;11.88;5.22;;;;;;;15.49;54.90;94314.91;4987765;28;20224;-76
2023/10/25 03:45:51;;;;;;;11.57;4.85;;;;;;;15.60;54.61;94305.53;4971807;28;20216;-74
2023/10/25 03:48:17;;;;;;;14.13;5.45;;;;;;;15.36;55.12;94305.06;4974361;28;20220;-74
2023/10/25 03:50:42;;;;;;;10.57;5.35;;;;;;;15.43;55.18;94308.56;4972022;28;20224;-75
2023/10/25 03:53:08;;;;;;;13.30;5.95;;;;;;;15.58;54.77;94315.53;4973847;28;20183;-74
2023/10/25 03:55:33;;;;;;;17.13;6.80;;;;;;;15.44;55.50;94333.22;4974730;28;20216;-74
2023/10/25 03:57:58;;;;;;;12.45;5.55;;;;;;;15.19;56.15;94322.31;4976608;28;20228;-73
2023/10/25 04:00:24;;;;;;;16.80;6.47;;;;;;;15.27;55.94;94332.75;4979299;28;20223;-74
2023/10/25 04:02:50;;;;;;;15.15;6.75;;;;;;;15.27;56.11;94329.28;4970110;28;20216;-72
2023/10/25 04:05:16;;;;;;;12.73;5.65;;;;;;;15.25;55.92;94321.53;4971585;28;20192;-74
2023/10/25 04:07:41;;;;;;;13.55;6.50;;;;;;;15.26;56.20;94312.56;4972500;28;21104;-73
2023/10/25 04:10:07;;;;;;;11.70;5.25;;;;;;;15.30;55.77;94303.22;4975626;28;20298;-73
2023/10/25 04:12:32;;;;;;;12.30;6.00;;;;;;;15.19;56.14;94320.50;4974692;28;20331;-73
2023/10/25 04:14:58;;;;;;;14.80;6.72;;;;;;;14.97;56.78;94319.78;4972685;28;20275;-73
2023/10/25 04:17:23;;;;;;;16.58;6.43;;;;;;;14.71;57.57;94309.03;4973776;28;20185;-75
2023/10/25 04:19:49;;;;;;;16.48;6.20;;;;;;;14.74;57.71;94308.66;4973200;28;20239;-73
2023/10/25 04:22:14;;;;;;;12.75;6.40;;;;;;;14.92;57.06;94306.31;4970284;28;20228;-73
2023/10/25 04:24:40;;;;;;;11.90;6.78;;;;;;;14.87;57.28;94319.31;4976894;28;20306;-73
2023/10/25 04:27:05;;;;;;;11.05;5.82;;;;;;;15.04;56.75;94337.53;4972021;28;20255;-74
2023/10/25 04:29:30;;;;;;;15.98;6.35;;;;;;;14.82;57.32;94315.63;4970902;28;20204;-73
2023/10/25 04:31:56;;;;;;;14.75;6.20;;;;;;;14.89;57.02;94317.28;4971728;28;20187;-77
2023/10/25 04:34:22;;;;;;;15.75;6.13;;;;;;;14.86;57.14;94308.91;4973197;28;20223;-77
2023/10/25 04:36:48;;;;;;;16.55;6.18;;;;;;;15.03;56.91;94309.41;4972948;28;20219;-75
2023/10/25 04:39:13;;;;;;;16.73;6.85;;;;;;;15.12;56.67;94301.09;4971876;28;20212;-75
2023/10/25 04:41:40;;;;;;;19.27;6.38;;;;;;;15.15;56.53;94282.16;4972568;28;20326;-74
2023/10/25 04:44:06;;;;;;;14.98;6.55;;;;;;;15.21;56.47;94299.13;4969953;28;20185;-77
2023/10/25 04:46:31;;;;;;;15.82;6.45;;;;;;;15.24;55.94;94280.19;4968298;28;20228;-73
2023/10/25 04:48:57;;;;;;;17.95;6.40;;;;;;;15.18;56.66;94278.31;4971445;28;20231;-75
2023/10/25 04:51:22;;;;;;;14.35;6.63;;;;;;;14.94;57.17;94263.75;4966744;28;20236;-74
2023/10/25 04:53:48;;;;;;;14.35;6.00;;;;;;;15.19;56.68;94250.81;4971426;28;20256;-73
2023/10/25 04:56:13;;;;;;;15.38;6.07;;;;;;;15.22;56.34;94242.47;4972761;28;20199;-74
2023/10/25 04:58:38;;;;;;;18.65;7.28;;;;;;;15.26;56.45;94259.59;4968483;28;20223;-74
2023/10/25 05:01:14;;;;;;;18.00;6.65;;;;;;;15.36;56.13;94265.31;4970131;28;20216;-73
2023/10/25 05:03:41;;;;;;;14.82;5.72;;;;;;;15.27;56.13;94247.19;4972355;28;20219;-74
2023/10/25 05:06:07;;;;;;;16.85;6.25;;;;;;;15.22;56.31;94263.66;4971963;28;20232;-75
2023/10/25 05:08:34;;;;;;;15.23;6.47;;;;;;;15.26;56.18;94251.63;4973385;28;20316;-73
2023/10/25 05:11:04;;;;;;;14.43;6.03;;;;;;;15.26;56.25;94254.28;4977442;28;20276;-75
2023/10/25 05:13:30;;;;;;;17.08;6.75;;;;;;;15.11;56.75;94254.47;4970729;28;20281;-74
2023/10/25 05:15:56;;;;;;;17.13;6.35;;;;;;;15.27;56.50;94255.13;4969812;28;20220;-75
2023/10/25 05:18:21;;;;;;;17.33;6.45;;;;;;;15.44;56.27;94269.63;4971796;28;20216;-78
2023/10/25 05:20:59;;;;;;;16.85;6.97;;;;;;;15.42;56.25;94269.00;4953636;28;20211;-77
2023/10/25 05:23:30;;;;;;;18.17;6.50;;;;;;;15.46;56.52;94242.94;4972299;28;20188;-72
2023/10/25 05:25:56;;;;;;;14.45;7.22;;;;;;;15.54;56.68;94261.31;4975752;28;20195;-74
2023/10/25 05:28:22;;;;;;;18.08;7.30;;;;;;;15.46;56.57;94269.44;4955980;28;20238;-74
2023/10/25 05:30:50;;;;;;;17.50;6.75;;;;;;;15.60;56.53;94274.56;4973079;28;20231;-74
2023/10/25 05:33:19;;;;;;;19.13;7.80;;;;;;;15.53;56.25;94263.16;4970010;28;20363;-76
2023/10/25 05:35:45;;;;;;;22.33;9.15;;;;;;;15.27;56.94;94274.47;4972888;28;20217;-74
2023/10/25 05:38:11;;;;;;;22.77;8.15;;;;;;;15.44;57.00;94270.44;4971982;28;20211;-76
2023/10/25 05:40:36;;;;;;;16.60;7.60;;;;;;;15.54;56.53;94264.78;4972104;28;20228;-75
2023/10/25 05:43:06;;;;;;;20.83;8.32;;;;;;;15.61;56.26;94267.41;4973761;28;20236;-85
2023/10/25 05:45:32;;;;;;;19.85;7.90;;;;;;;15.79;55.74;94270.34;4976118;28;20244;-86
2023/10/25 05:47:58;;;;;;;20.33;7.70;;;;;;;15.75;55.74;94276.25;4952111;28;20247;-85
2023/10/25 05:50:23;;;;;;;17.38;7.65;;;;;;;15.77;55.35;94242.41;4957177;28;20207;-82
2023/10/25 05:52:49;;;;;;;16.13;6.97;;;;;;;15.72;55.82;94250.16;4979688;28;20215;-80
2023/10/25 05:55:16;;;;;;;21.10;6.57;;;;;;;15.74;55.43;94251.56;4973975;28;20227;-81
2023/10/25 05:57:42;;;;;;;20.38;6.22;;;;;;;15.88;54.83;94285.06;4974043;28;20224;-79
2023/10/25 06:00:07;;;;;;;20.55;6.88;;;;;;;15.83;55.08;94290.13;4960650;28;20224;-81
2023/10/25 06:02:33;;;;;;;14.50;6.47;;;;;;;15.83;55.46;94262.81;4972876;28;20184;-80
2023/10/25 06:05:00;;;;;;;17.15;6.78;;;;;;;15.87;55.56;94303.78;4980629;28;20188;-84
2023/10/25 06:07:26;;;;;;;21.42;7.55;;;;;;;15.93;55.32;94296.88;4974472;28;20231;-81
2023/10/25 06:09:52;;;;;;;20.42;7.70;;;;;;;16.03;55.12;94297.28;4979002;28;20228;-78
2023/10/25 06:12:18;;;;;;;15.18;6.93;;;;;;;16.00;55.15;94290.56;4971758;28;20223;-81
2023/10/25 06:14:43;;;;;;;21.08;8.05;;;;;;;16.03;55.14;94276.06;4960394;28;20342;-83
2023/10/25 06:17:09;;;;;;;22.90;8.55;;;;;;;16.05;55.27;94285.47;4976059;28;20192;-80
2023/10/25 06:19:34;;;;;;;19.38;8.10;;;;;;;16.16;54.93;94272.63;4979150;28;20212;-82
2023/10/25 06:21:59;;;;;;;23.05;8.00;;;;;;;16.11;55.19;94294.44;4969558;28;20220;-81
2023/10/25 06:24:25;;;;;;;25.30;8.35;;;;;;;16.09;55.08;94267.31;4974638;28;20305;-80
2023/10/25 06:26:50;;;;;;;21.33;7.13;;;;;;;16.35;55.39;94282.41;4968625;28;20216;-81
2023/10/25 06:29:16;;;;;;;18.90;7.70;;;;;;;16.27;54.95;94304.63;4974859;28;20291;-81
2023/10/25 06:31:44;;;;;;;19.08;7.82;;;;;;;16.53;54.85;94311.78;4971542;28;20212;-83
2023/10/25 06:34:10;;;;;;;20.67;7.72;;;;;;;16.50;54.48;94292.81;4971776;28;20314;-74
2023/10/25 06:36:36;;;;;;;16.77;7.45;;;;;;;16.46;54.98;94295.03;4971572;28;20230;-79
2023/10/25 06:39:04;;;;;;;25.55;8.85;;;;;;;16.46;54.43;94271.16;4970475;28;20366;-74
2023/10/25 06:41:30;;;;;;;27.23;9.32;;;;;;;16.64;53.90;94278.50;4971749;28;20306;-71
2023/10/25 06:43:56;;;;;;;21.00;9.05;;;;;;;16.48;54.08;94293.00;4965918;28;20188;-72
2023/10/25 06:46:21;;;;;;;22.35;9.05;;;;;;;16.40;54.24;94287.91;4972931;28;20222;-72
2023/10/25 06:48:47;;;;;;;21.25;8.43;;;;;;;16.36;54.52;94285.88;4970952;28;20220;-73
2023/10/25 06:51:15;;;;;;;19.92;7.93;;;;;;;16.48;54.29;94295.66;4969095;28;20243;-74
2023/10/25 06:53:40;;;;;;;14.95;7.68;;;;;;;16.66;53.87;94294.22;4971439;28;20220;-74
2023/10/25 06:56:06;;;;;;;17.40;8.02;;;;;;;16.73;53.50;94289.69;4968997;28;20464;-72
2023/10/25 06:58:32;;;;;;;18.33;7.93;;;;;;;16.84;53.44;94285.63;4968368;28;20267;-74
2023/10/25 07:00:58;;;;;;;21.85;9.15;;;;;;;16.95;53.00;94271.72;4971126;28;20224;-73
2023/10/25 07:03:34;;;;;;;21.67;8.00;;;;;;;16.86;52.47;94283.56;4970952;28;20225;-78
2023/10/25 07:06:01;;;;;;;21.40;7.55;;;;;;;16.90;52.64;94298.88;4970100;28;20223;-75
2023/10/25 07:08:27;;;;;;;24.05;14.20;;;;;;;16.94;52.63;94310.72;4967871;28;20187;-71
2023/10/25 07:10:52;;;;;;;17.23;8.65;;;;;;;17.08;52.44;94303.56;4971515;28;20212;-75
2023/10/25 07:13:18;;;;;;;24.15;10.55;;;;;;;17.19;52.55;94297.59;4981573;28;20216;-76
2023/10/25 07:15:43;;;;;;;25.83;12.93;;;;;;;17.26;51.71;94305.50;4986656;28;20224;-71
2023/10/25 07:18:08;;;;;;;19.13;9.57;;;;;;;17.23;51.54;94300.63;4965220;28;20251;-74
2023/10/25 07:20:34;;;;;;;22.48;9.82;;;;;;;17.34;51.52;94317.75;4967601;28;20254;-75
2023/10/25 07:23:00;;;;;;;24.70;9.38;;;;;;;17.43;51.26;94303.22;4970656;28;20679;-75
2023/10/25 07:25:26;;;;;;;18.85;8.05;;;;;;;17.64;50.30;94320.69;4969400;28;20322;-77
2023/10/25 07:27:52;;;;;;;16.95;6.60;;;;;;;17.58;50.19;94310.91;4965714;28;20220;-80
2023/10/25 07:30:17;;;;;;;13.82;6.00;;;;;;;17.64;50.46;94318.00;4969778;28;20246;-75
2023/10/25 07:32:42;;;;;;;22.65;7.72;;;;;;;17.61;50.06;94324.59;4966212;28;20231;-71
2023/10/25 07:35:08;;;;;;;21.85;8.43;;;;;;;17.60;50.32;94314.16;4974026;28;20185;-78
2023/10/25 07:37:34;;;;;;;19.35;7.07;;;;;;;17.61;49.82;94306.00;4971586;28;20315;-72
2023/10/25 07:39:59;;;;;;;23.58;7.78;;;;;;;17.64;49.54;94320.69;4970125;28;20223;-70
2023/10/25 07:42:25;;;;;;;22.70;8.02;;;;;;;17.68;49.33;94321.09;4968783;28;20747;-72
2023/10/25 07:44:50;;;;;;;18.02;7.03;;;;;;;17.54;49.91;94326.47;4970883;28;20220;-72
2023/10/25 07:47:17;;;;;;;18.77;7.25;;;;;;;17.58;49.79;94327.66;4968553;28;20295;-71
2023/10/25 07:49:45;;;;;;;20.05;7.95;;;;;;;17.64;50.06;94329.50;4968924;28;20240;-76
2023/10/25 07:52:11;;;;;;;22.67;8.07;;;;;;;17.68;49.89;94321.09;4969991;28;20216;-77
2023/10/25 07:54:37;;;;;;;21.83;8.13;;;;;;;17.71;49.78;94323.31;4970570;28;20348;-76
2023/10/25 07:57:02;;;;;;;22.48;6.90;;;;;;;17.62;49.64;94320.09;4968311;28;20224;-73
2023/10/25 07:59:28;;;;;;;22.20;7.68;;;;;;;17.67;49.90;94332.72;4969702;28;20196;-78
2023/10/25 08:01:54;;;;;;;22.88;7.60;;;;;;;17.74;49.59;94336.19;4969801;28;20195;-73
2023/10/25 08:04:20;;;;;;;20.88;7.90;;;;;;;17.81;49.20;94352.97;4969036;28;20228;-75
2023/10/25 08:06:45;;;;;;;23.95;9.10;;;;;;;17.79;49.33;94353.16;4965355;28;20220;-76
2023/10/25 08:09:10;;;;;;;28.40;10.13;;;;;;;17.88;49.24;94343.06;4964186;28;20320;-73
2023/10/25 08:11:37;;;;;;;27.50;10.88;;;;;;;17.89;48.75;94333.28;4973799;28;20180;-74
2023/10/25 08:14:03;;;;;;;18.38;7.38;;;;;;;18.04;48.07;94339.09;4967437;28;20255;-72
2023/10/25 08:16:28;;;;;;;23.48;7.53;;;;;;;17.90;48.02;94346.34;4953571;28;20216;-74
2023/10/25 08:18:54;;;;;;;24.35;8.32;;;;;;;17.94;48.23;94347.56;4968029;28;20253;-77
2023/10/25 08:21:19;;;;;;;22.92;7.28;;;;;;;17.93;48.09;94345.91;4972643;28;20306;-72
2023/10/25 08:23:45;;;;;;;27.20;7.22;;;;;;;18.04;48.17;94360.38;4969700;28;20224;-78
2023/10/25 08:26:11;;;;;;;21.77;7.18;;;;;;;18.18;47.77;94364.63;4971958;28;20192;-75
2023/10/25 08:28:37;;;;;;;24.02;6.85;;;;;;;18.26;47.81;94350.25;4973340;28;20217;-76
2023/10/25 08:31:16;;;;;;;21.27;6.90;;;;;;;18.29;47.54;94355.13;4968094;28;20232;-74
2023/10/25 08:33:42;;;;;;;23.90;7.70;;;;;;;18.38;47.03;94353.81;4970033;28;20314;-70
2023/10/25 08:36:07;;;;;;;21.35;7.43;;;;;;;18.40;47.08;94373.06;4967740;28;20280;-77
2023/10/25 08:38:34;;;;;;;27.40;7.47;;;;;;;18.55;46.68;94379.91;4983361;28;20189;-75
2023/10/25 08:41:06;;;;;;;23.80;6.72;;;;;;;18.45;47.14;94373.22;4968722;28;20203;-72
2023/10/25 08:43:33;;;;;;;18.73;7.43;;;;;;;18.64;46.57;94367.97;4984084;28;20303;-71
2023/10/25 08:46:01;;;;;;;30.08;7.90;;;;;;;18.70;46.57;94364.44;4971576;28;20224;-76
2023/10/25 08:48:27;;;;;;;21.58;7.57;;;;;;;18.68;46.71;94353.16;4979895;28;20296;-75
2023/10/25 08:50:54;;;;;;;27.52;6.65;;;;;;;18.73;46.40;94366.66;4966348;28;20241;-77
2023/10/25 08:53:24;;;;;;;22.33;6.97;;;;;;;18.76;46.41;94360.09;4972717;28;20195;-74
2023/10/25 08:55:54;;;;;;;18.63;7.18;;;;;;;18.91;46.18;94363.25;4952479;28;20315;-74
2023/10/25 08:58:20;;;;;;;21.85;6.95;;;;;;;19.06;46.40;94362.88;4969122;28;20290;-80
2023/10/25 09:00:47;;;;;;;20.92;6.32;;;;;;;19.13;46.96;94361.78;4969376;28;20228;-76
2023/10/25 09:03:33;;;;;;;20.17;6.13;;;;;;;19.10;45.95;94356.91;4967006;28;20211;-79
2023/10/25 09:06:03;;;;;;;19.55;6.45;;;;;;;19.24;45.77;94359.44;4984356;28;20231;-78
2023/10/25 09:08:29;;;;;;;17.15;6.03;;;;;;;19.27;45.83;94361.66;4967053;28;20222;-79
2023/10/25 09:11:02;;;;;;;24.58;6.53;;;;;;;19.34;45.86;94360.56;4967423;28;20196;-77
2023/10/25 09:13:32;;;;;;;20.05;6.10;;;;;;;19.43;45.92;94365.59;4984349;28;20220;-75
2023/10/25 09:16:08;;;;;;;19.88;6.68;;;;;;;19.50;46.41;94366.34;4968425;28;20227;-77
2023/10/25 09:18:35;;;;;;;18.05;6.47;;;;;;;19.41;45.57;94351.69;4964514;28;20287;-77
2023/10/25 09:21:05;;;;;;;22.30;6.95;;;;;;;19.46;46.30;94357.13;4983727;28;20219;-78
2023/10/25 09:23:33;;;;;;;28.15;6.95;;;;;;;19.41;44.95;94352.50;4959398;28;20250;-75
2023/10/25 09:26:00;;;;;;;27.13;6.63;;;;;;;19.46;44.74;94349.97;4972351;28;20238;-76
2023/10/25 09:28:27;;;;;;;26.95;7.00;;;;;;;19.48;45.40;94357.75;4971551;28;20222;-74
2023/10/25 09:30:58;;;;;;;18.92;6.25;;;;;;;19.55;45.36;94358.50;4966119;28;20224;-73
2023/10/25 09:33:27;;;;;;;23.58;6.63;;;;;;;19.60;44.74;94362.13;4963948;28;20282;-71
2023/10/25 09:35:53;;;;;;;19.17;6.28;;;;;;;19.69;43.72;94343.97;4968496;28;20302;-72
2023/10/25 09:38:18;;;;;;;28.10;7.65;;;;;;;19.75;44.69;94347.59;4970100;28;20239;-72
2023/10/25 09:40:45;;;;;;;25.15;7.55;;;;;;;19.78;44.66;94334.63;4969810;28;20208;-72
2023/10/25 09:43:17;;;;;;;23.10;6.90;;;;;;;19.68;43.78;94334.34;4971065;28;20231;-71
2023/10/25 09:45:52;;;;;;;25.40;7.85;;;;;;;19.73;44.33;94329.16;4977042;28;20239;-71
2023/10/25 09:48:19;;;;;;;23.73;7.05;;;;;;;19.72;44.00;94330.19;4971532;28;20316;-71
2023/10/25 09:50:58;;;;;;;21.90;7.30;;;;;;;19.77;44.68;94338.34;4979054;28;20287;-74
2023/10/25 09:53:30;;;;;;;21.52;6.55;;;;;;;19.72;45.08;94332.03;4974469;28;20220;-72
2023/10/25 09:56:03;;;;;;;19.98;6.25;;;;;;;19.75;44.81;94328.91;4975323;28;20184;-71
2023/10/25 09:58:34;;;;;;;26.52;6.95;;;;;;;19.80;45.38;94319.19;4971493;28;20707;-72
2023/10/25 10:01:03;;;;;;;22.00;6.65;;;;;;;19.92;44.11;94316.59;4971329;28;20224;-72
2023/10/25 10:03:35;;;;;;;19.95;6.43;;;;;;;20.06;44.93;94309.22;4972278;28;20216;-72
2023/10/25 10:06:11;;;;;;;25.92;6.70;;;;;;;20.32;44.21;94305.34;4988041;28;20637;-71
2023/10/25 10:09:09;;;;;;;23.45;8.40;;;;;;;20.59;43.27;94295.06;4987867;28;20191;-70
2023/10/25 10:11:43;;;;;;;31.77;7.13;;;;;;;20.83;42.51;94295.06;4935276;29;20589;-71
2023/10/25 10:14:38;;;;;;;24.77;6.75;;;;;;;20.85;43.41;94290.28;4954244;29;20196;-74
2023/10/25 10:17:14;;;;;;;19.65;6.53;;;;;;;20.79;42.86;94277.88;4931355;29;21121;-73
2023/10/25 10:19:45;;;;;;;25.23;6.55;;;;;;;20.90;42.88;94275.22;4937869;29;20216;-72
2023/10/25 10:22:13;;;;;;;25.63;6.70;;;;;;;20.99;42.49;94278.34;4948685;29;20256;-73
2023/10/25 10:24:53;;;;;;;26.35;7.00;;;;;;;20.97;42.50;94268.91;4950718;29;20240;-77
2023/10/25 10:27:20;;;;;;;32.42;6.90;;;;;;;21.22;41.52;94273.97;4938473;29;20228;-74
2023/10/25 10:29:49;;;;;;;26.40;7.28;;;;;;;21.06;43.62;94268.34;4938483;29;20294;-72
2023/10/25 10:32:16;;;;;;;21.95;6.78;;;;;;;21.15;43.19;94269.59;4936384;29;20192;-74
2023/10/25 10:35:00;;;;;;;29.13;7.25;;;;;;;21.26;42.86;94256.44;4949130;29;20233;-72
2023/10/25 10:37:29;;;;;;;28.92;8.35;;;;;;;21.34;41.31;94240.00;4940386;29;20231;-77
2023/10/25 10:39:57;;;;;;;28.20;7.60;;;;;;;21.33;42.35;94244.56;4937572;28;20220;-80
2023/10/25 10:42:31;;;;;;;29.60;7.93;;;;;;;21.51;41.90;94256.94;4939836;29;20243;-76
2023/10/25 10:44:58;;;;;;;27.88;9.10;;;;;;;21.66;41.98;94248.41;4952259;29;20303;-76
2023/10/25 10:47:37;;;;;;;30.50;7.72;;;;;;;21.95;39.99;94238.50;4931975;28;20267;-78
2023/10/25 10:50:20;;;;;;;26.63;8.73;;;;;;;22.22;40.42;94233.38;4959634;28;20220;-76
2023/10/25 10:52:47;;;;;;;30.42;8.85;;;;;;;22.58;39.00;94222.38;4973740;28;20216;-75
2023/10/25 10:55:15;;;;;;;38.75;9.35;;;;;;;22.71;36.57;94224.72;4965622;28;20224;-71
2023/10/25 10:57:41;;;;;;;52.58;9.93;;;;;;;22.90;35.72;94212.66;4986036;28;20220;-73
2023/10/25 11:00:08;;;;;;;47.22;9.57;;;;;;;22.96;35.68;94213.59;4975998;28;20223;-71
2023/10/25 11:02:37;;;;;;;45.35;10.05;;;;;;;23.10;35.77;94235.47;4974502;28;20215;-75
2023/10/25 11:05:04;;;;;;;38.53;8.43;;;;;;;23.23;35.31;94227.06;4991182;28;20187;-75
2023/10/25 11:07:30;;;;;;;41.38;9.13;;;;;;;23.09;34.98;94215.06;4973693;28;20219;-75
2023/10/25 11:09:56;;;;;;;44.78;9.05;;;;;;;22.99;35.78;94220.28;4973620;28;20667;-75
2023/10/25 11:12:23;;;;;;;38.40;8.20;;;;;;;22.97;35.91;94203.66;4973514;28;20244;-80
2023/10/25 11:14:48;;;;;;;42.35;8.75;;;;;;;22.80;36.04;94227.78;4973625;28;20220;-77
2023/10/25 11:17:14;;;;;;;47.33;8.98;;;;;;;22.76;35.61;94210.59;4971880;28;20208;-77
2023/10/25 11:19:45;;;;;;;41.35;8.15;;;;;;;22.71;35.74;94227.41;4970434;28;20213;-72
2023/10/25 11:22:11;;;;;;;38.53;8.40;;;;;;;22.75;36.20;94241.09;4973821;28;20299;-75
2023/10/25 11:24:36;;;;;;;38.80;7.95;;;;;;;22.77;35.99;94237.13;4970424;28;20223;-77